sensor_id;sensor_type;location;lat;lon;timestamp;P1;durP1;ratioP1;P2;durP2;ratioP2
78648;SDS011;67962;47.310;9.642;2024-02-04T00:01:03;6.30;;;3.17;;
78648;SDS011;67962;47.310;9.642;2024-02-04T00:03:29;4.90;;;2.50;;
78648;SDS011;67962;47.310;9.642;2024-02-04T00:05:54;5.82;;;2.88;;
78648;SDS011;67962;47.310;9.642;2024-02-04T00:08:20;5.38;;;2.60;;
78648;SDS011;67962;47.310;9.642;2024-02-04T00:10:46;3.75;;;2.20;;
78648;SDS011;67962;47.310;9.642;2024-02-04T00:13:12;4.10;;;2.05;;
78648;SDS011;67962;47.310;9.642;2024-02-04T00:15:38;4.78;;;2.55;;
78648;SDS011;67962;47.310;9.642;2024-02-04T00:18:04;4.72;;;2.58;;
78648;SDS011;67962;47.310;9.642;2024-02-04T00:20:29;3.92;;;2.40;;
78648;SDS011;67962;47.310;9.642;2024-02-04T00:22:57;3.20;;;2.20;;
78648;SDS011;67962;47.310;9.642;2024-02-04T00:25:23;3.75;;;2.33;;
78648;SDS011;67962;47.310;9.642;2024-02-04T00:27:49;5.43;;;2.75;;
78648;SDS011;67962;47.310;9.642;2024-02-04T00:30:15;4.00;;;2.35;;
78648;SDS011;67962;47.310;9.642;2024-02-04T00:32:40;3.20;;;2.35;;
78648;SDS011;67962;47.310;9.642;2024-02-04T00:35:06;3.25;;;2.40;;
78648;SDS011;67962;47.310;9.642;2024-02-04T00:37:33;4.20;;;2.60;;
78648;SDS011;67962;47.310;9.642;2024-02-04T00:39:58;5.32;;;2.70;;
78648;SDS011;67962;47.310;9.642;2024-02-04T00:42:24;5.00;;;2.65;;
78648;SDS011;67962;47.310;9.642;2024-02-04T00:44:50;7.53;;;2.95;;
78648;SDS011;67962;47.310;9.642;2024-02-04T00:47:15;4.90;;;3.13;;
78648;SDS011;67962;47.310;9.642;2024-02-04T00:49:41;7.22;;;3.05;;
78648;SDS011;67962;47.310;9.642;2024-02-04T00:52:07;4.10;;;2.85;;
78648;SDS011;67962;47.310;9.642;2024-02-04T00:54:32;4.80;;;2.97;;
78648;SDS011;67962;47.310;9.642;2024-02-04T00:56:58;5.38;;;2.67;;
78648;SDS011;67962;47.310;9.642;2024-02-04T00:59:25;6.28;;;3.30;;
78648;SDS011;67962;47.310;9.642;2024-02-04T01:01:50;3.78;;;2.60;;
78648;SDS011;67962;47.310;9.642;2024-02-04T01:04:16;7.63;;;3.88;;
78648;SDS011;67962;47.310;9.642;2024-02-04T01:06:42;8.32;;;3.75;;
78648;SDS011;67962;47.310;9.642;2024-02-04T01:09:07;7.63;;;3.50;;
78648;SDS011;67962;47.310;9.642;2024-02-04T01:11:33;6.10;;;3.85;;
78648;SDS011;67962;47.310;9.642;2024-02-04T01:13:59;7.65;;;3.70;;
78648;SDS011;67962;47.310;9.642;2024-02-04T01:16:25;7.22;;;3.97;;
78648;SDS011;67962;47.310;9.642;2024-02-04T01:18:51;10.00;;;4.15;;
78648;SDS011;67962;47.310;9.642;2024-02-04T01:21:17;8.85;;;4.18;;
78648;SDS011;67962;47.310;9.642;2024-02-04T01:23:43;8.50;;;4.15;;
78648;SDS011;67962;47.310;9.642;2024-02-04T01:26:08;7.45;;;3.92;;
78648;SDS011;67962;47.310;9.642;2024-02-04T01:28:34;11.57;;;4.57;;
78648;SDS011;67962;47.310;9.642;2024-02-04T01:31:00;10.27;;;4.10;;
78648;SDS011;67962;47.310;9.642;2024-02-04T01:33:26;8.23;;;3.67;;
78648;SDS011;67962;47.310;9.642;2024-02-04T01:35:51;12.98;;;4.03;;
78648;SDS011;67962;47.310;9.642;2024-02-04T01:38:17;8.07;;;3.80;;
78648;SDS011;67962;47.310;9.642;2024-02-04T01:40:43;7.57;;;3.88;;
78648;SDS011;67962;47.310;9.642;2024-02-04T01:43:11;7.25;;;3.97;;
78648;SDS011;67962;47.310;9.642;2024-02-04T01:45:37;5.53;;;3.50;;
78648;SDS011;67962;47.310;9.642;2024-02-04T01:48:02;6.28;;;3.80;;
78648;SDS011;67962;47.310;9.642;2024-02-04T01:50:29;10.25;;;4.30;;
78648;SDS011;67962;47.310;9.642;2024-02-04T01:52:55;7.55;;;4.63;;
78648;SDS011;67962;47.310;9.642;2024-02-04T01:55:21;9.38;;;4.47;;
78648;SDS011;67962;47.310;9.642;2024-02-04T01:57:47;8.73;;;4.13;;
78648;SDS011;67962;47.310;9.642;2024-02-04T02:00:15;7.32;;;3.83;;
78648;SDS011;67962;47.310;9.642;2024-02-04T02:02:40;7.20;;;4.00;;
78648;SDS011;67962;47.310;9.642;2024-02-04T02:05:09;7.95;;;3.70;;
78648;SDS011;67962;47.310;9.642;2024-02-04T02:07:35;7.38;;;3.97;;
78648;SDS011;67962;47.310;9.642;2024-02-04T02:10:01;8.80;;;3.80;;
78648;SDS011;67962;47.310;9.642;2024-02-04T02:12:28;6.55;;;4.13;;
78648;SDS011;67962;47.310;9.642;2024-02-04T02:15:47;6.72;;;4.05;;
78648;SDS011;67962;47.310;9.642;2024-02-04T02:17:55;7.38;;;4.07;;
78648;SDS011;67962;47.310;9.642;2024-02-04T02:23:31;5.88;;;3.75;;
78648;SDS011;67962;47.310;9.642;2024-02-04T02:26:00;5.07;;;3.45;;
78648;SDS011;67962;47.310;9.642;2024-02-04T02:28:27;7.60;;;3.97;;
78648;SDS011;67962;47.310;9.642;2024-02-04T02:30:53;5.72;;;3.60;;
78648;SDS011;67962;47.310;9.642;2024-02-04T02:33:18;9.05;;;3.90;;
78648;SDS011;67962;47.310;9.642;2024-02-04T02:35:44;6.05;;;3.38;;
78648;SDS011;67962;47.310;9.642;2024-02-04T02:38:26;10.95;;;4.22;;
78648;SDS011;67962;47.310;9.642;2024-02-04T02:40:59;6.82;;;4.15;;
78648;SDS011;67962;47.310;9.642;2024-02-04T02:43:32;9.85;;;4.07;;
78648;SDS011;67962;47.310;9.642;2024-02-04T02:45:59;7.35;;;3.85;;
78648;SDS011;67962;47.310;9.642;2024-02-04T02:48:26;7.88;;;4.70;;
78648;SDS011;67962;47.310;9.642;2024-02-04T02:50:53;8.32;;;4.47;;
78648;SDS011;67962;47.310;9.642;2024-02-04T02:53:19;5.80;;;4.22;;
78648;SDS011;67962;47.310;9.642;2024-02-04T02:55:45;12.63;;;4.43;;
78648;SDS011;67962;47.310;9.642;2024-02-04T02:58:11;8.15;;;4.65;;
78648;SDS011;67962;47.310;9.642;2024-02-04T03:00:37;6.65;;;4.55;;
78648;SDS011;67962;47.310;9.642;2024-02-04T03:03:03;7.00;;;4.10;;
78648;SDS011;67962;47.310;9.642;2024-02-04T03:05:29;7.80;;;4.82;;
78648;SDS011;67962;47.310;9.642;2024-02-04T03:07:55;8.63;;;4.35;;
78648;SDS011;67962;47.310;9.642;2024-02-04T03:10:20;8.13;;;4.38;;
78648;SDS011;67962;47.310;9.642;2024-02-04T03:12:46;7.13;;;4.45;;
78648;SDS011;67962;47.310;9.642;2024-02-04T03:15:12;9.23;;;4.70;;
78648;SDS011;67962;47.310;9.642;2024-02-04T03:17:37;7.68;;;4.28;;
78648;SDS011;67962;47.310;9.642;2024-02-04T03:20:03;8.07;;;4.32;;
78648;SDS011;67962;47.310;9.642;2024-02-04T03:22:29;8.23;;;4.70;;
78648;SDS011;67962;47.310;9.642;2024-02-04T03:24:55;8.10;;;4.68;;
78648;SDS011;67962;47.310;9.642;2024-02-04T03:27:21;8.10;;;4.60;;
78648;SDS011;67962;47.310;9.642;2024-02-04T03:29:46;9.55;;;3.95;;
78648;SDS011;67962;47.310;9.642;2024-02-04T03:32:12;6.90;;;3.95;;
78648;SDS011;67962;47.310;9.642;2024-02-04T03:34:38;9.13;;;4.35;;
78648;SDS011;67962;47.310;9.642;2024-02-04T03:37:05;5.45;;;3.53;;
78648;SDS011;67962;47.310;9.642;2024-02-04T03:39:31;7.45;;;3.95;;
78648;SDS011;67962;47.310;9.642;2024-02-04T03:41:57;7.40;;;4.03;;
78648;SDS011;67962;47.310;9.642;2024-02-04T03:44:22;8.30;;;3.33;;
78648;SDS011;67962;47.310;9.642;2024-02-04T03:46:48;7.30;;;3.88;;
78648;SDS011;67962;47.310;9.642;2024-02-04T03:49:15;6.30;;;3.80;;
78648;SDS011;67962;47.310;9.642;2024-02-04T03:51:41;6.47;;;4.28;;
78648;SDS011;67962;47.310;9.642;2024-02-04T03:54:07;6.15;;;3.88;;
78648;SDS011;67962;47.310;9.642;2024-02-04T03:56:32;6.97;;;4.32;;
78648;SDS011;67962;47.310;9.642;2024-02-04T03:58:58;7.60;;;4.32;;
78648;SDS011;67962;47.310;9.642;2024-02-04T04:01:24;6.80;;;4.25;;
78648;SDS011;67962;47.310;9.642;2024-02-04T04:03:49;8.10;;;4.30;;
78648;SDS011;67962;47.310;9.642;2024-02-04T04:06:15;7.97;;;4.38;;
78648;SDS011;67962;47.310;9.642;2024-02-04T04:08:41;5.88;;;4.00;;
78648;SDS011;67962;47.310;9.642;2024-02-04T04:11:10;6.72;;;4.35;;
78648;SDS011;67962;47.310;9.642;2024-02-04T04:13:36;6.57;;;4.28;;
78648;SDS011;67962;47.310;9.642;2024-02-04T04:16:03;5.80;;;3.88;;
78648;SDS011;67962;47.310;9.642;2024-02-04T04:18:29;7.53;;;4.20;;
78648;SDS011;67962;47.310;9.642;2024-02-04T04:20:55;6.50;;;4.00;;
78648;SDS011;67962;47.310;9.642;2024-02-04T04:23:21;7.95;;;4.35;;
78648;SDS011;67962;47.310;9.642;2024-02-04T04:25:47;6.95;;;4.28;;
78648;SDS011;67962;47.310;9.642;2024-02-04T04:28:12;9.85;;;4.72;;
78648;SDS011;67962;47.310;9.642;2024-02-04T04:30:38;7.53;;;4.45;;
78648;SDS011;67962;47.310;9.642;2024-02-04T04:33:04;7.10;;;4.20;;
78648;SDS011;67962;47.310;9.642;2024-02-04T04:35:31;8.27;;;4.78;;
78648;SDS011;67962;47.310;9.642;2024-02-04T04:37:57;6.55;;;4.32;;
78648;SDS011;67962;47.310;9.642;2024-02-04T04:40:22;7.38;;;4.25;;
78648;SDS011;67962;47.310;9.642;2024-02-04T04:42:48;11.57;;;4.45;;
78648;SDS011;67962;47.310;9.642;2024-02-04T04:45:15;7.47;;;3.83;;
78648;SDS011;67962;47.310;9.642;2024-02-04T04:47:41;7.60;;;3.85;;
78648;SDS011;67962;47.310;9.642;2024-02-04T04:50:07;5.90;;;4.07;;
78648;SDS011;67962;47.310;9.642;2024-02-04T04:52:32;5.88;;;3.88;;
78648;SDS011;67962;47.310;9.642;2024-02-04T04:54:58;8.02;;;4.13;;
78648;SDS011;67962;47.310;9.642;2024-02-04T04:57:24;6.63;;;3.92;;
78648;SDS011;67962;47.310;9.642;2024-02-04T04:59:50;5.40;;;3.63;;
78648;SDS011;67962;47.310;9.642;2024-02-04T05:02:15;5.93;;;3.67;;
78648;SDS011;67962;47.310;9.642;2024-02-04T05:04:44;7.88;;;3.97;;
78648;SDS011;67962;47.310;9.642;2024-02-04T05:07:10;6.03;;;3.75;;
78648;SDS011;67962;47.310;9.642;2024-02-04T05:09:36;6.88;;;4.22;;
78648;SDS011;67962;47.310;9.642;2024-02-04T05:12:02;6.75;;;4.20;;
78648;SDS011;67962;47.310;9.642;2024-02-04T05:14:28;7.38;;;4.35;;
78648;SDS011;67962;47.310;9.642;2024-02-04T05:16:54;6.05;;;3.75;;
78648;SDS011;67962;47.310;9.642;2024-02-04T05:19:20;7.57;;;4.20;;
78648;SDS011;67962;47.310;9.642;2024-02-04T05:21:46;6.68;;;4.00;;
78648;SDS011;67962;47.310;9.642;2024-02-04T05:24:11;6.20;;;3.58;;
78648;SDS011;67962;47.310;9.642;2024-02-04T05:26:37;6.00;;;3.55;;
78648;SDS011;67962;47.310;9.642;2024-02-04T05:29:03;7.10;;;3.80;;
78648;SDS011;67962;47.310;9.642;2024-02-04T05:31:28;8.15;;;4.32;;
78648;SDS011;67962;47.310;9.642;2024-02-04T05:33:55;7.75;;;3.92;;
78648;SDS011;67962;47.310;9.642;2024-02-04T05:36:21;11.80;;;4.28;;
78648;SDS011;67962;47.310;9.642;2024-02-04T05:38:46;13.55;;;3.70;;
78648;SDS011;67962;47.310;9.642;2024-02-04T05:41:12;8.32;;;3.90;;
78648;SDS011;67962;47.310;9.642;2024-02-04T05:43:39;5.05;;;3.22;;
78648;SDS011;67962;47.310;9.642;2024-02-04T05:46:04;5.72;;;3.35;;
78648;SDS011;67962;47.310;9.642;2024-02-04T05:48:30;5.47;;;3.08;;
78648;SDS011;67962;47.310;9.642;2024-02-04T05:50:56;8.45;;;4.38;;
78648;SDS011;67962;47.310;9.642;2024-02-04T05:53:21;9.32;;;4.50;;
78648;SDS011;67962;47.310;9.642;2024-02-04T05:55:47;9.32;;;3.97;;
78648;SDS011;67962;47.310;9.642;2024-02-04T05:58:13;7.05;;;4.05;;
78648;SDS011;67962;47.310;9.642;2024-02-04T06:00:39;8.55;;;4.38;;
78648;SDS011;67962;47.310;9.642;2024-02-04T06:03:05;9.15;;;4.70;;
78648;SDS011;67962;47.310;9.642;2024-02-04T06:05:31;10.40;;;4.38;;
78648;SDS011;67962;47.310;9.642;2024-02-04T06:07:57;7.93;;;4.55;;
78648;SDS011;67962;47.310;9.642;2024-02-04T06:10:23;9.13;;;4.95;;
78648;SDS011;67962;47.310;9.642;2024-02-04T06:12:48;9.32;;;5.00;;
78648;SDS011;67962;47.310;9.642;2024-02-04T06:15:15;11.60;;;5.47;;
78648;SDS011;67962;47.310;9.642;2024-02-04T06:17:41;11.30;;;5.85;;
78648;SDS011;67962;47.310;9.642;2024-02-04T06:20:07;12.65;;;6.10;;
78648;SDS011;67962;47.310;9.642;2024-02-04T06:22:34;10.05;;;5.95;;
78648;SDS011;67962;47.310;9.642;2024-02-04T06:25:00;9.90;;;5.55;;
78648;SDS011;67962;47.310;9.642;2024-02-04T06:27:26;9.50;;;5.57;;
78648;SDS011;67962;47.310;9.642;2024-02-04T06:29:52;9.70;;;5.45;;
78648;SDS011;67962;47.310;9.642;2024-02-04T06:32:17;9.18;;;5.03;;
78648;SDS011;67962;47.310;9.642;2024-02-04T06:34:46;10.07;;;6.13;;
78648;SDS011;67962;47.310;9.642;2024-02-04T06:37:12;9.88;;;6.65;;
78648;SDS011;67962;47.310;9.642;2024-02-04T06:39:37;13.27;;;6.70;;
78648;SDS011;67962;47.310;9.642;2024-02-04T06:42:03;13.48;;;6.55;;
78648;SDS011;67962;47.310;9.642;2024-02-04T06:44:29;13.60;;;6.60;;
78648;SDS011;67962;47.310;9.642;2024-02-04T06:46:55;15.60;;;7.80;;
78648;SDS011;67962;47.310;9.642;2024-02-04T06:49:21;12.70;;;6.32;;
78648;SDS011;67962;47.310;9.642;2024-02-04T06:51:47;16.05;;;7.78;;
78648;SDS011;67962;47.310;9.642;2024-02-04T06:54:13;15.00;;;7.78;;
78648;SDS011;67962;47.310;9.642;2024-02-04T06:56:39;12.07;;;6.80;;
78648;SDS011;67962;47.310;9.642;2024-02-04T06:59:05;10.73;;;6.10;;
78648;SDS011;67962;47.310;9.642;2024-02-04T07:01:31;22.45;;;10.35;;
78648;SDS011;67962;47.310;9.642;2024-02-04T07:03:57;16.65;;;7.68;;
78648;SDS011;67962;47.310;9.642;2024-02-04T07:06:23;13.38;;;7.43;;
78648;SDS011;67962;47.310;9.642;2024-02-04T07:08:48;12.55;;;7.55;;
78648;SDS011;67962;47.310;9.642;2024-02-04T07:11:15;16.42;;;10.07;;
78648;SDS011;67962;47.310;9.642;2024-02-04T07:13:41;16.13;;;9.73;;
78648;SDS011;67962;47.310;9.642;2024-02-04T07:16:07;15.75;;;8.57;;
78648;SDS011;67962;47.310;9.642;2024-02-04T07:18:32;14.82;;;7.95;;
78648;SDS011;67962;47.310;9.642;2024-02-04T07:20:58;14.75;;;7.93;;
78648;SDS011;67962;47.310;9.642;2024-02-04T07:23:24;11.90;;;7.07;;
78648;SDS011;67962;47.310;9.642;2024-02-04T07:25:49;13.75;;;6.57;;
78648;SDS011;67962;47.310;9.642;2024-02-04T07:28:15;15.02;;;7.55;;
78648;SDS011;67962;47.310;9.642;2024-02-04T07:30:41;12.50;;;6.43;;
78648;SDS011;67962;47.310;9.642;2024-02-04T07:33:06;10.80;;;6.60;;
78648;SDS011;67962;47.310;9.642;2024-02-04T07:35:32;10.98;;;6.75;;
78648;SDS011;67962;47.310;9.642;2024-02-04T07:37:58;10.15;;;5.95;;
78648;SDS011;67962;47.310;9.642;2024-02-04T07:40:23;11.15;;;6.32;;
78648;SDS011;67962;47.310;9.642;2024-02-04T07:42:49;10.57;;;6.40;;
78648;SDS011;67962;47.310;9.642;2024-02-04T07:45:15;11.07;;;6.35;;
78648;SDS011;67962;47.310;9.642;2024-02-04T07:47:40;10.48;;;6.13;;
78648;SDS011;67962;47.310;9.642;2024-02-04T07:50:06;12.27;;;7.57;;
78648;SDS011;67962;47.310;9.642;2024-02-04T07:52:32;14.40;;;7.68;;
78648;SDS011;67962;47.310;9.642;2024-02-04T07:54:58;21.00;;;9.73;;
78648;SDS011;67962;47.310;9.642;2024-02-04T07:57:24;21.30;;;12.13;;
78648;SDS011;67962;47.310;9.642;2024-02-04T07:59:50;15.65;;;9.27;;
78648;SDS011;67962;47.310;9.642;2024-02-04T08:02:17;15.00;;;8.55;;
78648;SDS011;67962;47.310;9.642;2024-02-04T08:04:43;15.85;;;8.27;;
78648;SDS011;67962;47.310;9.642;2024-02-04T08:07:08;12.45;;;7.97;;
78648;SDS011;67962;47.310;9.642;2024-02-04T08:09:34;13.00;;;8.38;;
78648;SDS011;67962;47.310;9.642;2024-02-04T08:12:00;17.85;;;8.35;;
78648;SDS011;67962;47.310;9.642;2024-02-04T08:14:25;15.45;;;7.80;;
78648;SDS011;67962;47.310;9.642;2024-02-04T08:16:51;15.00;;;8.50;;
78648;SDS011;67962;47.310;9.642;2024-02-04T08:19:17;12.05;;;7.30;;
78648;SDS011;67962;47.310;9.642;2024-02-04T08:21:42;12.80;;;8.18;;
78648;SDS011;67962;47.310;9.642;2024-02-04T08:24:08;12.75;;;8.32;;
78648;SDS011;67962;47.310;9.642;2024-02-04T08:26:34;17.00;;;8.98;;
78648;SDS011;67962;47.310;9.642;2024-02-04T08:29:00;13.75;;;8.65;;
78648;SDS011;67962;47.310;9.642;2024-02-04T08:31:25;14.52;;;9.05;;
78648;SDS011;67962;47.310;9.642;2024-02-04T08:33:51;16.55;;;9.30;;
78648;SDS011;67962;47.310;9.642;2024-02-04T08:36:18;16.88;;;9.80;;
78648;SDS011;67962;47.310;9.642;2024-02-04T08:38:44;14.57;;;8.80;;
78648;SDS011;67962;47.310;9.642;2024-02-04T08:41:09;12.45;;;8.10;;
78648;SDS011;67962;47.310;9.642;2024-02-04T08:43:35;12.85;;;8.43;;
78648;SDS011;67962;47.310;9.642;2024-02-04T08:46:01;13.80;;;8.73;;
78648;SDS011;67962;47.310;9.642;2024-02-04T08:48:26;11.70;;;7.60;;
78648;SDS011;67962;47.310;9.642;2024-02-04T08:50:52;14.20;;;7.78;;
78648;SDS011;67962;47.310;9.642;2024-02-04T08:53:19;10.20;;;6.60;;
78648;SDS011;67962;47.310;9.642;2024-02-04T08:55:46;10.85;;;6.97;;
78648;SDS011;67962;47.310;9.642;2024-02-04T08:58:11;11.05;;;7.30;;
78648;SDS011;67962;47.310;9.642;2024-02-04T09:00:37;10.50;;;7.05;;
78648;SDS011;67962;47.310;9.642;2024-02-04T09:03:03;8.65;;;6.10;;
78648;SDS011;67962;47.310;9.642;2024-02-04T09:05:28;14.35;;;7.32;;
78648;SDS011;67962;47.310;9.642;2024-02-04T09:07:54;13.13;;;7.75;;
78648;SDS011;67962;47.310;9.642;2024-02-04T09:10:21;17.27;;;9.63;;
78648;SDS011;67962;47.310;9.642;2024-02-04T09:12:47;17.25;;;8.60;;
78648;SDS011;67962;47.310;9.642;2024-02-04T09:15:12;11.23;;;6.22;;
78648;SDS011;67962;47.310;9.642;2024-02-04T09:17:38;9.48;;;5.65;;
78648;SDS011;67962;47.310;9.642;2024-02-04T09:20:04;9.45;;;6.05;;
78648;SDS011;67962;47.310;9.642;2024-02-04T09:22:30;9.98;;;5.53;;
78648;SDS011;67962;47.310;9.642;2024-02-04T09:24:56;9.82;;;5.82;;
78648;SDS011;67962;47.310;9.642;2024-02-04T09:27:22;9.77;;;5.55;;
78648;SDS011;67962;47.310;9.642;2024-02-04T09:29:48;7.70;;;5.57;;
78648;SDS011;67962;47.310;9.642;2024-02-04T09:32:13;8.77;;;5.25;;
78648;SDS011;67962;47.310;9.642;2024-02-04T09:34:39;8.20;;;5.28;;
78648;SDS011;67962;47.310;9.642;2024-02-04T09:37:05;9.38;;;5.60;;
78648;SDS011;67962;47.310;9.642;2024-02-04T09:39:32;9.00;;;5.43;;
78648;SDS011;67962;47.310;9.642;2024-02-04T09:41:57;8.45;;;5.97;;
78648;SDS011;67962;47.310;9.642;2024-02-04T09:44:24;11.70;;;5.72;;
78648;SDS011;67962;47.310;9.642;2024-02-04T09:46:50;8.57;;;5.60;;
78648;SDS011;67962;47.310;9.642;2024-02-04T09:49:17;7.55;;;5.35;;
78648;SDS011;67962;47.310;9.642;2024-02-04T09:51:43;7.60;;;4.75;;
78648;SDS011;67962;47.310;9.642;2024-02-04T09:54:10;9.25;;;5.88;;
78648;SDS011;67962;47.310;9.642;2024-02-04T09:56:37;8.90;;;5.40;;
78648;SDS011;67962;47.310;9.642;2024-02-04T09:59:03;7.95;;;4.90;;
78648;SDS011;67962;47.310;9.642;2024-02-04T10:01:30;7.80;;;5.00;;
78648;SDS011;67962;47.310;9.642;2024-02-04T10:03:57;8.90;;;5.25;;
78648;SDS011;67962;47.310;9.642;2024-02-04T10:06:23;9.63;;;4.97;;
78648;SDS011;67962;47.310;9.642;2024-02-04T10:08:49;7.75;;;4.40;;
78648;SDS011;67962;47.310;9.642;2024-02-04T10:11:15;6.82;;;4.20;;
78648;SDS011;67962;47.310;9.642;2024-02-04T10:13:42;6.57;;;4.55;;
78648;SDS011;67962;47.310;9.642;2024-02-04T10:16:15;6.05;;;4.32;;
78648;SDS011;67962;47.310;9.642;2024-02-04T10:18:45;6.72;;;4.60;;
78648;SDS011;67962;47.310;9.642;2024-02-04T10:21:15;7.15;;;5.10;;
78648;SDS011;67962;47.310;9.642;2024-02-04T10:23:43;7.68;;;5.22;;
78648;SDS011;67962;47.310;9.642;2024-02-04T10:26:08;10.65;;;5.82;;
78648;SDS011;67962;47.310;9.642;2024-02-04T10:28:34;8.57;;;5.47;;
78648;SDS011;67962;47.310;9.642;2024-02-04T10:31:02;6.35;;;4.40;;
78648;SDS011;67962;47.310;9.642;2024-02-04T10:33:30;5.63;;;3.78;;
78648;SDS011;67962;47.310;9.642;2024-02-04T10:35:56;7.43;;;3.83;;
78648;SDS011;67962;47.310;9.642;2024-02-04T10:38:22;6.38;;;4.20;;
78648;SDS011;67962;47.310;9.642;2024-02-04T10:40:50;8.55;;;5.43;;
78648;SDS011;67962;47.310;9.642;2024-02-04T10:43:18;9.43;;;5.70;;
78648;SDS011;67962;47.310;9.642;2024-02-04T10:45:45;8.60;;;5.65;;
78648;SDS011;67962;47.310;9.642;2024-02-04T10:48:12;8.50;;;5.57;;
78648;SDS011;67962;47.310;9.642;2024-02-04T10:50:44;9.20;;;6.00;;
78648;SDS011;67962;47.310;9.642;2024-02-04T10:53:13;8.30;;;5.47;;
78648;SDS011;67962;47.310;9.642;2024-02-04T10:55:43;9.07;;;6.18;;
78648;SDS011;67962;47.310;9.642;2024-02-04T10:58:12;11.50;;;5.80;;
78648;SDS011;67962;47.310;9.642;2024-02-04T11:00:40;11.40;;;5.55;;
78648;SDS011;67962;47.310;9.642;2024-02-04T11:03:06;10.95;;;5.80;;
78648;SDS011;67962;47.310;9.642;2024-02-04T11:05:32;7.90;;;5.30;;
78648;SDS011;67962;47.310;9.642;2024-02-04T11:08:01;9.18;;;5.57;;
78648;SDS011;67962;47.310;9.642;2024-02-04T11:10:29;7.35;;;4.82;;
78648;SDS011;67962;47.310;9.642;2024-02-04T11:12:56;11.40;;;6.10;;
78648;SDS011;67962;47.310;9.642;2024-02-04T11:15:23;8.00;;;5.20;;
78648;SDS011;67962;47.310;9.642;2024-02-04T11:25:56;10.68;;;5.75;;
78648;SDS011;67962;47.310;9.642;2024-02-04T11:28:23;7.90;;;5.43;;
78648;SDS011;67962;47.310;9.642;2024-02-04T11:30:50;7.38;;;5.10;;
78648;SDS011;67962;47.310;9.642;2024-02-04T11:33:20;8.07;;;5.22;;
78648;SDS011;67962;47.310;9.642;2024-02-04T11:35:47;7.78;;;5.47;;
78648;SDS011;67962;47.310;9.642;2024-02-04T11:38:29;8.82;;;4.93;;
78648;SDS011;67962;47.310;9.642;2024-02-04T11:40:56;7.03;;;3.97;;
78648;SDS011;67962;47.310;9.642;2024-02-04T11:43:22;8.50;;;4.95;;
78648;SDS011;67962;47.310;9.642;2024-02-04T11:45:51;8.80;;;5.25;;
78648;SDS011;67962;47.310;9.642;2024-02-04T11:48:19;7.20;;;5.10;;
78648;SDS011;67962;47.310;9.642;2024-02-04T11:50:51;8.27;;;5.15;;
78648;SDS011;67962;47.310;9.642;2024-02-04T11:53:18;6.63;;;4.80;;
78648;SDS011;67962;47.310;9.642;2024-02-04T11:55:44;8.32;;;5.18;;
78648;SDS011;67962;47.310;9.642;2024-02-04T11:58:10;9.23;;;5.35;;
78648;SDS011;67962;47.310;9.642;2024-02-04T12:00:37;7.90;;;4.88;;
78648;SDS011;67962;47.310;9.642;2024-02-04T12:03:07;7.55;;;5.07;;
78648;SDS011;67962;47.310;9.642;2024-02-04T12:05:34;9.25;;;5.32;;
78648;SDS011;67962;47.310;9.642;2024-02-04T12:08:04;8.07;;;4.97;;
78648;SDS011;67962;47.310;9.642;2024-02-04T12:10:32;8.98;;;5.65;;
78648;SDS011;67962;47.310;9.642;2024-02-04T12:12:59;8.32;;;5.25;;
78648;SDS011;67962;47.310;9.642;2024-02-04T12:15:28;7.95;;;5.43;;
78648;SDS011;67962;47.310;9.642;2024-02-04T12:17:55;8.32;;;5.43;;
78648;SDS011;67962;47.310;9.642;2024-02-04T12:20:21;8.45;;;5.50;;
78648;SDS011;67962;47.310;9.642;2024-02-04T12:22:46;10.73;;;5.68;;
78648;SDS011;67962;47.310;9.642;2024-02-04T12:25:14;7.82;;;4.95;;
78648;SDS011;67962;47.310;9.642;2024-02-04T12:27:41;10.48;;;5.10;;
78648;SDS011;67962;47.310;9.642;2024-02-04T12:30:08;11.25;;;5.90;;
78648;SDS011;67962;47.310;9.642;2024-02-04T12:32:34;7.60;;;5.00;;
78648;SDS011;67962;47.310;9.642;2024-02-04T12:35:01;7.88;;;5.00;;
78648;SDS011;67962;47.310;9.642;2024-02-04T12:37:27;8.95;;;5.10;;
78648;SDS011;67962;47.310;9.642;2024-02-04T12:39:54;6.88;;;4.55;;
78648;SDS011;67962;47.310;9.642;2024-02-04T12:42:20;7.03;;;4.53;;
78648;SDS011;67962;47.310;9.642;2024-02-04T12:44:49;6.85;;;4.40;;
78648;SDS011;67962;47.310;9.642;2024-02-04T12:47:20;7.75;;;4.75;;
78648;SDS011;67962;47.310;9.642;2024-02-04T12:49:45;10.48;;;4.57;;
78648;SDS011;67962;47.310;9.642;2024-02-04T12:52:11;7.10;;;4.22;;
78648;SDS011;67962;47.310;9.642;2024-02-04T12:54:41;7.95;;;4.93;;
78648;SDS011;67962;47.310;9.642;2024-02-04T12:57:10;7.05;;;4.88;;
78648;SDS011;67962;47.310;9.642;2024-02-04T12:59:46;8.23;;;4.88;;
78648;SDS011;67962;47.310;9.642;2024-02-04T13:02:13;8.85;;;5.32;;
78648;SDS011;67962;47.310;9.642;2024-02-04T13:04:40;9.73;;;5.25;;
78648;SDS011;67962;47.310;9.642;2024-02-04T13:07:11;10.10;;;6.00;;
78648;SDS011;67962;47.310;9.642;2024-02-04T13:09:39;9.55;;;5.53;;
78648;SDS011;67962;47.310;9.642;2024-02-04T13:12:05;9.88;;;5.97;;
78648;SDS011;67962;47.310;9.642;2024-02-04T13:14:35;8.77;;;5.40;;
78648;SDS011;67962;47.310;9.642;2024-02-04T13:17:02;8.70;;;5.78;;
78648;SDS011;67962;47.310;9.642;2024-02-04T13:19:32;10.02;;;4.88;;
78648;SDS011;67962;47.310;9.642;2024-02-04T13:21:59;9.57;;;5.70;;
78648;SDS011;67962;47.310;9.642;2024-02-04T13:24:25;8.63;;;5.35;;
78648;SDS011;67962;47.310;9.642;2024-02-04T13:26:51;11.25;;;5.43;;
78648;SDS011;67962;47.310;9.642;2024-02-04T13:29:16;8.93;;;5.10;;
78648;SDS011;67962;47.310;9.642;2024-02-04T13:31:42;9.13;;;4.70;;
78648;SDS011;67962;47.310;9.642;2024-02-04T13:34:08;7.80;;;4.72;;
78648;SDS011;67962;47.310;9.642;2024-02-04T13:36:34;6.93;;;4.20;;
78648;SDS011;67962;47.310;9.642;2024-02-04T13:38:59;8.32;;;4.55;;
78648;SDS011;67962;47.310;9.642;2024-02-04T13:41:25;8.20;;;4.60;;
78648;SDS011;67962;47.310;9.642;2024-02-04T13:43:51;6.95;;;4.03;;
78648;SDS011;67962;47.310;9.642;2024-02-04T13:46:17;6.40;;;4.32;;
78648;SDS011;67962;47.310;9.642;2024-02-04T13:48:42;6.47;;;4.75;;
78648;SDS011;67962;47.310;9.642;2024-02-04T13:51:08;6.30;;;4.53;;
78648;SDS011;67962;47.310;9.642;2024-02-04T13:53:34;7.78;;;4.95;;
78648;SDS011;67962;47.310;9.642;2024-02-04T13:56:00;7.93;;;5.15;;
78648;SDS011;67962;47.310;9.642;2024-02-04T13:58:26;7.85;;;5.20;;
78648;SDS011;67962;47.310;9.642;2024-02-04T14:00:52;8.13;;;4.72;;
78648;SDS011;67962;47.310;9.642;2024-02-04T14:03:18;8.45;;;5.20;;
78648;SDS011;67962;47.310;9.642;2024-02-04T14:05:44;8.77;;;4.80;;
78648;SDS011;67962;47.310;9.642;2024-02-04T14:08:10;7.30;;;4.85;;
78648;SDS011;67962;47.310;9.642;2024-02-04T14:10:35;8.57;;;5.20;;
78648;SDS011;67962;47.310;9.642;2024-02-04T14:13:01;7.30;;;5.03;;
78648;SDS011;67962;47.310;9.642;2024-02-04T14:15:27;8.85;;;5.35;;
78648;SDS011;67962;47.310;9.642;2024-02-04T14:17:53;7.10;;;4.65;;
78648;SDS011;67962;47.310;9.642;2024-02-04T14:20:19;7.85;;;4.70;;
78648;SDS011;67962;47.310;9.642;2024-02-04T14:22:45;7.72;;;4.45;;
78648;SDS011;67962;47.310;9.642;2024-02-04T14:25:10;7.45;;;4.68;;
78648;SDS011;67962;47.310;9.642;2024-02-04T14:27:36;7.15;;;4.32;;
78648;SDS011;67962;47.310;9.642;2024-02-04T14:30:04;8.32;;;4.88;;
78648;SDS011;67962;47.310;9.642;2024-02-04T14:32:31;8.77;;;4.30;;
78648;SDS011;67962;47.310;9.642;2024-02-04T14:34:57;6.20;;;4.13;;
78648;SDS011;67962;47.310;9.642;2024-02-04T14:37:23;5.93;;;4.00;;
78648;SDS011;67962;47.310;9.642;2024-02-04T14:39:49;6.07;;;4.10;;
78648;SDS011;67962;47.310;9.642;2024-02-04T14:42:15;6.63;;;3.58;;
78648;SDS011;67962;47.310;9.642;2024-02-04T14:44:43;6.82;;;3.03;;
78648;SDS011;67962;47.310;9.642;2024-02-04T14:47:09;6.10;;;2.90;;
78648;SDS011;67962;47.310;9.642;2024-02-04T14:49:36;6.28;;;3.92;;